sensor_id;sensor_type;location;lat;lon;timestamp;pressure;altitude;pressure_sealevel;temperature;humidity
11077;BME280;5591;42.626;23.380;2023-08-01T00:00:15;93897.34;;;21.57;100.00
11077;BME280;5591;42.626;23.380;2023-08-01T00:02:41;93925.38;;;21.60;100.00
11077;BME280;5591;42.626;23.380;2023-08-01T00:05:09;93891.19;;;21.52;100.00
11077;BME280;5591;42.626;23.380;2023-08-01T00:07:36;93899.84;;;21.74;100.00
11077;BME280;5591;42.626;23.380;2023-08-01T00:10:03;93889.88;;;21.59;100.00
11077;BME280;5591;42.626;23.380;2023-08-01T00:12:31;93887.78;;;21.71;100.00
11077;BME280;5591;42.626;23.380;2023-08-01T00:14:58;93887.78;;;21.71;100.00
11077;BME280;5591;42.626;23.380;2023-08-01T00:17:25;93894.47;;;21.79;100.00
11077;BME280;5591;42.626;23.380;2023-08-01T00:19:52;93897.19;;;21.84;100.00
11077;BME280;5591;42.626;23.380;2023-08-01T00:22:20;93889.94;;;21.79;100.00
11077;BME280;5591;42.626;23.380;2023-08-01T00:24:47;93890.75;;;21.75;100.00
11077;BME280;5591;42.626;23.380;2023-08-01T00:27:14;93884.34;;;21.76;100.00
11077;BME280;5591;42.626;23.380;2023-08-01T00:29:42;93889.31;;;21.52;100.00
11077;BME280;5591;42.626;23.380;2023-08-01T00:32:09;93888.00;;;21.60;100.00
11077;BME280;5591;42.626;23.380;2023-08-01T00:34:36;93892.06;;;21.67;100.00
11077;BME280;5591;42.626;23.380;2023-08-01T00:37:03;93885.84;;;21.52;100.00
11077;BME280;5591;42.626;23.380;2023-08-01T00:39:30;93886.91;;;21.51;100.00
11077;BME280;5591;42.626;23.380;2023-08-01T00:41:57;93889.00;;;21.39;100.00
11077;BME280;5591;42.626;23.380;2023-08-01T00:44:24;93895.13;;;21.34;100.00
11077;BME280;5591;42.626;23.380;2023-08-01T00:46:52;93892.97;;;21.31;100.00
11077;BME280;5591;42.626;23.380;2023-08-01T00:49:19;93895.09;;;21.24;100.00
11077;BME280;5591;42.626;23.380;2023-08-01T00:51:47;93890.03;;;21.28;100.00
11077;BME280;5591;42.626;23.380;2023-08-01T00:54:14;93887.84;;;21.15;100.00
11077;BME280;5591;42.626;23.380;2023-08-01T00:56:41;93873.09;;;20.97;100.00
11077;BME280;5591;42.626;23.380;2023-08-01T00:59:10;93875.25;;;21.05;100.00
11077;BME280;5591;42.626;23.380;2023-08-01T01:01:36;93882.22;;;21.11;100.00
11077;BME280;5591;42.626;23.380;2023-08-01T01:04:05;93873.38;;;21.06;100.00
11077;BME280;5591;42.626;23.380;2023-08-01T01:06:33;93888.81;;;20.94;100.00
11077;BME280;5591;42.626;23.380;2023-08-01T01:09:01;93877.25;;;20.83;100.00
11077;BME280;5591;42.626;23.380;2023-08-01T01:11:30;93876.78;;;20.91;100.00
11077;BME280;5591;42.626;23.380;2023-08-01T01:13:57;93872.84;;;20.99;100.00
11077;BME280;5591;42.626;23.380;2023-08-01T01:16:24;93865.31;;;20.96;100.00
11077;BME280;5591;42.626;23.380;2023-08-01T01:18:50;93864.59;;;21.05;100.00
11077;BME280;5591;42.626;23.380;2023-08-01T01:21:19;93869.09;;;21.05;100.00
11077;BME280;5591;42.626;23.380;2023-08-01T01:23:46;93863.53;;;21.11;100.00
11077;BME280;5591;42.626;23.380;2023-08-01T01:26:15;93866.53;;;21.20;100.00
11077;BME280;5591;42.626;23.380;2023-08-01T01:28:46;93846.22;;;21.19;100.00
11077;BME280;5591;42.626;23.380;2023-08-01T01:31:14;93855.91;;;21.40;100.00
11077;BME280;5591;42.626;23.380;2023-08-01T01:33:41;93815.78;;;21.15;100.00
11077;BME280;5591;42.626;23.380;2023-08-01T01:36:08;93858.84;;;21.43;100.00
11077;BME280;5591;42.626;23.380;2023-08-01T01:38:36;93868.19;;;21.46;100.00
11077;BME280;5591;42.626;23.380;2023-08-01T01:41:03;93846.56;;;21.37;100.00
11077;BME280;5591;42.626;23.380;2023-08-01T01:43:30;93845.22;;;21.50;100.00
11077;BME280;5591;42.626;23.380;2023-08-01T01:45:57;93860.47;;;21.54;100.00
11077;BME280;5591;42.626;23.380;2023-08-01T01:48:24;93845.81;;;21.62;100.00
11077;BME280;5591;42.626;23.380;2023-08-01T01:50:50;93847.16;;;21.64;100.00
11077;BME280;5591;42.626;23.380;2023-08-01T01:53:17;93851.19;;;21.67;100.00
11077;BME280;5591;42.626;23.380;2023-08-01T01:55:45;93856.22;;;21.63;100.00
11077;BME280;5591;42.626;23.380;2023-08-01T01:58:12;93867.16;;;21.57;100.00
11077;BME280;5591;42.626;23.380;2023-08-01T02:00:39;93863.06;;;21.34;100.00
11077;BME280;5591;42.626;23.380;2023-08-01T02:03:06;93867.59;;;21.29;100.00
11077;BME280;5591;42.626;23.380;2023-08-01T02:05:35;93898.59;;;21.35;100.00
11077;BME280;5591;42.626;23.380;2023-08-01T02:08:02;93867.88;;;21.32;100.00
11077;BME280;5591;42.626;23.380;2023-08-01T02:10:30;93855.03;;;21.19;100.00
11077;BME280;5591;42.626;23.380;2023-08-01T02:12:58;93854.75;;;21.16;100.00
11077;BME280;5591;42.626;23.380;2023-08-01T02:15:25;93851.25;;;21.05;100.00
11077;BME280;5591;42.626;23.380;2023-08-01T02:17:51;93863.22;;;20.98;100.00
11077;BME280;5591;42.626;23.380;2023-08-01T02:20:18;93860.97;;;20.80;100.00
11077;BME280;5591;42.626;23.380;2023-08-01T02:22:45;93871.31;;;20.71;100.00
11077;BME280;5591;42.626;23.380;2023-08-01T02:25:12;93852.63;;;20.66;100.00
11077;BME280;5591;42.626;23.380;2023-08-01T02:27:39;93856.59;;;20.64;100.00
11077;BME280;5591;42.626;23.380;2023-08-01T02:30:08;93863.50;;;20.60;100.00
11077;BME280;5591;42.626;23.380;2023-08-01T02:32:35;93858.38;;;20.48;100.00
11077;BME280;5591;42.626;23.380;2023-08-01T02:35:02;93857.22;;;20.34;100.00
11077;BME280;5591;42.626;23.380;2023-08-01T02:37:29;93850.97;;;20.19;100.00
11077;BME280;5591;42.626;23.380;2023-08-01T02:39:56;93845.84;;;20.13;100.00
11077;BME280;5591;42.626;23.380;2023-08-01T02:42:22;93861.34;;;20.16;100.00
11077;BME280;5591;42.626;23.380;2023-08-01T02:44:49;93861.41;;;19.94;100.00
11077;BME280;5591;42.626;23.380;2023-08-01T02:47:17;93857.91;;;19.89;100.00
11077;BME280;5591;42.626;23.380;2023-08-01T02:49:44;93851.97;;;19.82;100.00
11077;BME280;5591;42.626;23.380;2023-08-01T02:52:11;93853.03;;;19.81;100.00
11077;BME280;5591;42.626;23.380;2023-08-01T02:54:38;93852.47;;;19.79;100.00
11077;BME280;5591;42.626;23.380;2023-08-01T02:57:05;93851.63;;;19.73;100.00
11077;BME280;5591;42.626;23.380;2023-08-01T02:59:32;93845.69;;;19.66;100.00
11077;BME280;5591;42.626;23.380;2023-08-01T03:01:59;93737.81;;;18.79;100.00
11077;BME280;5591;42.626;23.380;2023-08-01T03:04:27;93841.97;;;19.67;100.00
11077;BME280;5591;42.626;23.380;2023-08-01T03:06:54;93849.22;;;19.72;100.00
11077;BME280;5591;42.626;23.380;2023-08-01T03:09:21;93883.06;;;19.76;100.00
11077;BME280;5591;42.626;23.380;2023-08-01T03:11:48;93846.75;;;19.65;100.00
11077;BME280;5591;42.626;23.380;2023-08-01T03:14:15;93844.31;;;19.59;100.00
11077;BME280;5591;42.626;23.380;2023-08-01T03:16:42;93854.44;;;19.62;100.00
11077;BME280;5591;42.626;23.380;2023-08-01T03:19:09;93845.06;;;19.54;100.00
11077;BME280;5591;42.626;23.380;2023-08-01T03:21:37;93844.53;;;19.57;100.00
11077;BME280;5591;42.626;23.380;2023-08-01T03:24:05;93851.19;;;19.55;100.00
11077;BME280;5591;42.626;23.380;2023-08-01T03:26:34;93846.16;;;19.58;100.00
11077;BME280;5591;42.626;23.380;2023-08-01T03:29:01;93856.56;;;19.60;100.00
11077;BME280;5591;42.626;23.380;2023-08-01T03:31:27;93859.75;;;19.62;100.00
11077;BME280;5591;42.626;23.380;2023-08-01T03:33:55;93912.03;;;19.68;100.00
11077;BME280;5591;42.626;23.380;2023-08-01T03:36:23;93861.16;;;19.69;100.00
11077;BME280;5591;42.626;23.380;2023-08-01T03:38:52;93867.53;;;19.68;100.00
11077;BME280;5591;42.626;23.380;2023-08-01T03:41:18;93843.00;;;19.61;100.00
11077;BME280;5591;42.626;23.380;2023-08-01T03:43:45;93873.78;;;19.79;100.00
11077;BME280;5591;42.626;23.380;2023-08-01T03:46:12;93883.16;;;19.81;100.00
11077;BME280;5591;42.626;23.380;2023-08-01T03:48:39;93882.88;;;19.83;100.00
11077;BME280;5591;42.626;23.380;2023-08-01T03:51:06;93875.91;;;19.77;100.00
11077;BME280;5591;42.626;23.380;2023-08-01T03:53:33;93893.69;;;19.71;100.00
11077;BME280;5591;42.626;23.380;2023-08-01T03:56:01;93887.75;;;19.64;100.00
11077;BME280;5591;42.626;23.380;2023-08-01T03:58:28;93883.19;;;19.60;100.00
11077;BME280;5591;42.626;23.380;2023-08-01T04:00:54;93887.16;;;19.57;100.00
11077;BME280;5591;42.626;23.380;2023-08-01T04:03:21;93877.22;;;19.48;100.00
11077;BME280;5591;42.626;23.380;2023-08-01T04:05:48;93880.81;;;19.37;100.00
11077;BME280;5591;42.626;23.380;2023-08-01T04:08:15;93889.66;;;19.69;100.00
11077;BME280;5591;42.626;23.380;2023-08-01T04:10:42;93889.44;;;19.70;100.00
11077;BME280;5591;42.626;23.380;2023-08-01T04:13:10;93878.38;;;19.57;100.00
11077;BME280;5591;42.626;23.380;2023-08-01T04:15:37;93910.13;;;19.63;100.00
11077;BME280;5591;42.626;23.380;2023-08-01T04:18:03;93877.66;;;19.66;100.00
11077;BME280;5591;42.626;23.380;2023-08-01T04:20:30;93884.34;;;19.69;100.00
11077;BME280;5591;42.626;23.380;2023-08-01T04:22:57;93884.44;;;19.52;100.00
11077;BME280;5591;42.626;23.380;2023-08-01T04:25:24;93880.31;;;19.40;100.00
11077;BME280;5591;42.626;23.380;2023-08-01T04:27:52;93878.59;;;19.55;100.00
11077;BME280;5591;42.626;23.380;2023-08-01T04:30:20;93873.78;;;19.79;100.00
11077;BME280;5591;42.626;23.380;2023-08-01T04:32:47;93886.94;;;19.64;100.00
11077;BME280;5591;42.626;23.380;2023-08-01T04:35:14;93886.50;;;19.45;100.00
11077;BME280;5591;42.626;23.380;2023-08-01T04:37:40;93886.47;;;19.67;100.00
11077;BME280;5591;42.626;23.380;2023-08-01T04:40:08;93881.28;;;19.82;100.00
11077;BME280;5591;42.626;23.380;2023-08-01T04:42:35;93885.38;;;19.94;100.00
11077;BME280;5591;42.626;23.380;2023-08-01T04:45:02;93892.06;;;19.97;100.00
11077;BME280;5591;42.626;23.380;2023-08-01T04:47:30;93887.66;;;20.07;100.00
11077;BME280;5591;42.626;23.380;2023-08-01T04:49:57;93896.56;;;20.23;100.00
11077;BME280;5591;42.626;23.380;2023-08-01T04:52:24;93892.06;;;20.23;100.00
11077;BME280;5591;42.626;23.380;2023-08-01T04:54:51;93884.34;;;20.27;100.00
11077;BME280;5591;42.626;23.380;2023-08-01T04:57:18;93883.88;;;20.34;100.00
11077;BME280;5591;42.626;23.380;2023-08-01T04:59:45;93884.75;;;20.45;100.00
11077;BME280;5591;42.626;23.380;2023-08-01T05:02:11;93885.22;;;20.78;100.00
11077;BME280;5591;42.626;23.380;2023-08-01T05:04:40;93880.00;;;20.93;100.00
11077;BME280;5591;42.626;23.380;2023-08-01T05:07:06;93885.34;;;20.93;100.00
11077;BME280;5591;42.626;23.380;2023-08-01T05:09:33;93882.50;;;21.15;100.00
11077;BME280;5591;42.626;23.380;2023-08-01T05:12:00;93875.34;;;21.25;100.00
11077;BME280;5591;42.626;23.380;2023-08-01T05:14:27;93870.53;;;21.32;100.00
11077;BME280;5591;42.626;23.380;2023-08-01T05:16:53;93887.13;;;21.39;100.00
11077;BME280;5591;42.626;23.380;2023-08-01T05:19:20;93890.91;;;21.53;100.00
11077;BME280;5591;42.626;23.380;2023-08-01T05:21:48;93879.50;;;21.68;100.00
11077;BME280;5591;42.626;23.380;2023-08-01T05:24:15;93891.56;;;21.80;100.00
11077;BME280;5591;42.626;23.380;2023-08-01T05:26:42;93903.59;;;21.88;100.00
11077;BME280;5591;42.626;23.380;2023-08-01T05:29:09;93888.91;;;22.05;100.00
11077;BME280;5591;42.626;23.380;2023-08-01T05:31:36;93882.75;;;22.10;100.00
11077;BME280;5591;42.626;23.380;2023-08-01T05:34:03;93890.47;;;21.86;100.00
11077;BME280;5591;42.626;23.380;2023-08-01T05:36:29;93893.19;;;21.91;100.00
11077;BME280;5591;42.626;23.380;2023-08-01T05:38:58;93886.78;;;22.22;100.00
11077;BME280;5591;42.626;23.380;2023-08-01T05:41:24;93891.06;;;22.28;100.00
11077;BME280;5591;42.626;23.380;2023-08-01T05:43:52;93892.66;;;22.14;100.00
11077;BME280;5591;42.626;23.380;2023-08-01T05:46:19;93889.97;;;21.89;100.00
11077;BME280;5591;42.626;23.380;2023-08-01T05:48:46;93893.16;;;21.81;100.00
11077;BME280;5591;42.626;23.380;2023-08-01T05:51:12;93896.34;;;21.68;100.00
11077;BME280;5591;42.626;23.380;2023-08-01T05:53:39;93891.84;;;21.84;100.00
11077;BME280;5591;42.626;23.380;2023-08-01T05:56:07;93889.84;;;21.54;100.00
11077;BME280;5591;42.626;23.380;2023-08-01T05:58:34;93885.94;;;21.77;100.00
11077;BME280;5591;42.626;23.380;2023-08-01T06:01:01;93887.00;;;21.76;100.00
11077;BME280;5591;42.626;23.380;2023-08-01T06:03:28;93881.09;;;21.64;100.00
11077;BME280;5591;42.626;23.380;2023-08-01T06:05:54;93874.19;;;21.83;100.00
11077;BME280;5591;42.626;23.380;2023-08-01T06:08:21;93889.72;;;22.06;100.00
11077;BME280;5591;42.626;23.380;2023-08-01T06:10:48;93882.50;;;22.36;100.00
11077;BME280;5591;42.626;23.380;2023-08-01T06:13:15;93891.34;;;22.27;100.00
11077;BME280;5591;42.626;23.380;2023-08-01T06:15:42;93889.19;;;22.54;100.00
11077;BME280;5591;42.626;23.380;2023-08-01T06:18:09;93894.00;;;22.82;100.00
11077;BME280;5591;42.626;23.380;2023-08-01T06:20:37;93884.03;;;23.17;100.00
11077;BME280;5591;42.626;23.380;2023-08-01T06:23:03;93884.03;;;23.07;100.00
11077;BME280;5591;42.626;23.380;2023-08-01T06:25:30;93881.31;;;23.22;100.00
11077;BME280;5591;42.626;23.380;2023-08-01T06:27:57;93880.53;;;23.16;100.00
11077;BME280;5591;42.626;23.380;2023-08-01T06:30:25;93882.72;;;22.95;100.00
11077;BME280;5591;42.626;23.380;2023-08-01T06:32:52;93875.41;;;23.30;100.00
11077;BME280;5591;42.626;23.380;2023-08-01T06:35:19;93877.59;;;23.03;100.00
11077;BME280;5591;42.626;23.380;2023-08-01T06:37:46;93869.06;;;22.96;100.00
11077;BME280;5591;42.626;23.380;2023-08-01T06:40:13;93877.56;;;23.28;99.52
11077;BME280;5591;42.626;23.380;2023-08-01T06:42:40;93864.59;;;23.50;97.25
11077;BME280;5591;42.626;23.380;2023-08-01T06:45:08;93882.22;;;22.83;100.00
11077;BME280;5591;42.626;23.380;2023-08-01T06:47:37;93873.66;;;23.54;96.94
11077;BME280;5591;42.626;23.380;2023-08-01T06:50:04;93857.50;;;23.15;97.59
11077;BME280;5591;42.626;23.380;2023-08-01T06:52:31;93869.16;;;23.44;98.12
11077;BME280;5591;42.626;23.380;2023-08-01T06:54:58;93870.22;;;24.02;94.28
11077;BME280;5591;42.626;23.380;2023-08-01T06:57:25;93860.25;;;24.07;92.26
11077;BME280;5591;42.626;23.380;2023-08-01T06:59:52;93877.66;;;24.43;91.73
11077;BME280;5591;42.626;23.380;2023-08-01T07:02:19;93873.25;;;24.57;92.05
11077;BME280;5591;42.626;23.380;2023-08-01T07:04:47;93849.81;;;24.68;91.59
11077;BME280;5591;42.626;23.380;2023-08-01T07:07:14;93866.59;;;25.07;89.08
11077;BME280;5591;42.626;23.380;2023-08-01T07:09:40;93868.63;;;24.68;90.06
11077;BME280;5591;42.626;23.380;2023-08-01T07:12:07;93863.91;;;24.55;90.32
11077;BME280;5591;42.626;23.380;2023-08-01T07:14:34;93856.94;;;24.82;90.84
11077;BME280;5591;42.626;23.380;2023-08-01T07:17:01;93859.56;;;24.87;90.00
11077;BME280;5591;42.626;23.380;2023-08-01T07:19:28;93873.94;;;24.06;94.66
11077;BME280;5591;42.626;23.380;2023-08-01T07:21:56;93867.19;;;23.65;98.68
11077;BME280;5591;42.626;23.380;2023-08-01T07:24:23;93847.94;;;23.53;100.00
11077;BME280;5591;42.626;23.380;2023-08-01T07:26:50;93854.50;;;23.85;100.00
11077;BME280;5591;42.626;23.380;2023-08-01T07:29:17;93859.19;;;24.03;100.00
11077;BME280;5591;42.626;23.380;2023-08-01T07:31:44;93854.94;;;24.64;98.34
11077;BME280;5591;42.626;23.380;2023-08-01T07:34:11;93853.31;;;24.92;95.33
11077;BME280;5591;42.626;23.380;2023-08-01T07:36:38;93846.78;;;25.26;92.78
11077;BME280;5591;42.626;23.380;2023-08-01T07:39:06;93848.38;;;25.51;90.45
11077;BME280;5591;42.626;23.380;2023-08-01T07:41:33;93849.06;;;25.14;89.99
11077;BME280;5591;42.626;23.380;2023-08-01T07:44:01;93835.63;;;25.38;89.81
11077;BME280;5591;42.626;23.380;2023-08-01T07:46:28;93837.28;;;24.87;93.24
11077;BME280;5591;42.626;23.380;2023-08-01T07:48:55;93834.13;;;25.27;91.00
11077;BME280;5591;42.626;23.380;2023-08-01T07:51:22;93841.56;;;25.77;88.18
11077;BME280;5591;42.626;23.380;2023-08-01T07:53:50;93839.81;;;25.67;87.70
11077;BME280;5591;42.626;23.380;2023-08-01T07:56:19;93845.88;;;26.14;83.28
11077;BME280;5591;42.626;23.380;2023-08-01T07:58:46;93848.88;;;25.71;86.30
11077;BME280;5591;42.626;23.380;2023-08-01T08:01:12;93836.66;;;25.60;85.45
11077;BME280;5591;42.626;23.380;2023-08-01T08:03:39;93848.06;;;25.52;85.84
11077;BME280;5591;42.626;23.380;2023-08-01T08:06:06;93839.06;;;26.17;82.78
11077;BME280;5591;42.626;23.380;2023-08-01T08:08:33;93819.53;;;26.43;81.38
11077;BME280;5591;42.626;23.380;2023-08-01T08:11:02;93767.34;;;26.26;79.81
11077;BME280;5591;42.626;23.380;2023-08-01T08:13:30;93775.63;;;26.29;77.56
11077;BME280;5591;42.626;23.380;2023-08-01T08:15:57;93836.50;;;26.76;77.88
11077;BME280;5591;42.626;23.380;2023-08-01T08:18:24;93835.44;;;26.90;77.24
11077;BME280;5591;42.626;23.380;2023-08-01T08:20:52;93828.56;;;27.11;75.33
11077;BME280;5591;42.626;23.380;2023-08-01T08:23:19;93825.94;;;26.93;73.76
11077;BME280;5591;42.626;23.380;2023-08-01T08:25:45;93828.69;;;25.74;82.30
11077;BME280;5591;42.626;23.380;2023-08-01T08:28:13;93824.13;;;26.11;80.07
11077;BME280;5591;42.626;23.380;2023-08-01T08:30:41;93826.28;;;25.72;82.49
11077;BME280;5591;42.626;23.380;2023-08-01T08:33:08;93823.09;;;26.07;79.44
11077;BME280;5591;42.626;23.380;2023-08-01T08:35:36;93819.25;;;26.77;74.97
11077;BME280;5591;42.626;23.380;2023-08-01T08:38:03;93820.69;;;27.28;73.21
11077;BME280;5591;42.626;23.380;2023-08-01T08:40:32;93795.69;;;26.69;73.96
11077;BME280;5591;42.626;23.380;2023-08-01T08:43:01;93814.53;;;26.37;76.24
11077;BME280;5591;42.626;23.380;2023-08-01T08:45:29;93761.69;;;25.95;78.15
11077;BME280;5591;42.626;23.380;2023-08-01T08:48:01;93799.84;;;25.79;79.21
11077;BME280;5591;42.626;23.380;2023-08-01T08:50:30;93795.53;;;26.15;77.91
11077;BME280;5591;42.626;23.380;2023-08-01T08:52:57;93805.03;;;26.58;76.65
11077;BME280;5591;42.626;23.380;2023-08-01T08:55:25;93793.22;;;26.86;72.65
11077;BME280;5591;42.626;23.380;2023-08-01T08:57:53;93799.13;;;27.42;69.61
11077;BME280;5591;42.626;23.380;2023-08-01T09:00:20;93797.47;;;27.81;67.77
11077;BME280;5591;42.626;23.380;2023-08-01T09:02:48;93724.47;;;27.64;67.84
11077;BME280;5591;42.626;23.380;2023-08-01T09:05:16;93790.66;;;28.41;66.01
11077;BME280;5591;42.626;23.380;2023-08-01T09:07:46;93790.31;;;28.65;63.59
11077;BME280;5591;42.626;23.380;2023-08-01T09:10:16;93775.81;;;28.61;61.52
11077;BME280;5591;42.626;23.380;2023-08-01T09:12:43;93769.91;;;27.71;66.43
11077;BME280;5591;42.626;23.380;2023-08-01T09:15:10;93785.78;;;28.08;66.22
11077;BME280;5591;42.626;23.380;2023-08-01T09:17:48;93771.69;;;28.55;65.09
11077;BME280;5591;42.626;23.380;2023-08-01T09:20:16;93775.88;;;28.69;64.22
11077;BME280;5591;42.626;23.380;2023-08-01T09:22:43;93775.88;;;28.91;63.13
11077;BME280;5591;42.626;23.380;2023-08-01T09:25:11;93767.31;;;29.06;60.96
11077;BME280;5591;42.626;23.380;2023-08-01T09:27:38;93782.88;;;28.04;65.71
11077;BME280;5591;42.626;23.380;2023-08-01T09:30:07;93775.59;;;28.27;64.25
11077;BME280;5591;42.626;23.380;2023-08-01T09:32:34;93767.53;;;28.87;61.58
11077;BME280;5591;42.626;23.380;2023-08-01T09:35:02;93761.66;;;28.85;62.23
11077;BME280;5591;42.626;23.380;2023-08-01T09:37:40;93763.06;;;27.87;65.49
11077;BME280;5591;42.626;23.380;2023-08-01T09:40:07;93770.00;;;28.01;66.10
11077;BME280;5591;42.626;23.380;2023-08-01T09:42:38;93766.03;;;27.63;68.04
11077;BME280;5591;42.626;23.380;2023-08-01T09:45:11;93765.28;;;28.29;65.50
11077;BME280;5591;42.626;23.380;2023-08-01T09:47:38;93754.78;;;28.79;63.73
11077;BME280;5591;42.626;23.380;2023-08-01T09:50:05;93749.78;;;29.42;60.13
11077;BME280;5591;42.626;23.380;2023-08-01T09:52:33;93758.91;;;29.07;60.25
11077;BME280;5591;42.626;23.380;2023-08-01T09:55:01;93738.31;;;29.45;58.63
11077;BME280;5591;42.626;23.380;2023-08-01T09:57:29;93745.06;;;29.82;57.41
11077;BME280;5591;42.626;23.380;2023-08-01T09:59:57;93745.22;;;29.94;56.91
11077;BME280;5591;42.626;23.380;2023-08-01T10:02:26;93730.75;;;30.15;56.68
11077;BME280;5591;42.626;23.380;2023-08-01T10:04:57;93731.38;;;29.05;59.40
11077;BME280;5591;42.626;23.380;2023-08-01T10:07:26;93687.06;;;27.93;63.34
11077;BME280;5591;42.626;23.380;2023-08-01T10:09:58;93721.66;;;27.91;66.85
11077;BME280;5591;42.626;23.380;2023-08-01T10:12:27;93733.91;;;28.33;65.15
11077;BME280;5591;42.626;23.380;2023-08-01T10:14:54;93714.91;;;28.24;65.01
11077;BME280;5591;42.626;23.380;2023-08-01T10:17:21;93717.72;;;28.71;62.45
11077;BME280;5591;42.626;23.380;2023-08-01T10:19:49;93711.66;;;29.05;61.29
11077;BME280;5591;42.626;23.380;2023-08-01T10:22:17;93703.56;;;28.14;65.08
11077;BME280;5591;42.626;23.380;2023-08-01T10:24:45;93717.94;;;28.23;65.58
11077;BME280;5591;42.626;23.380;2023-08-01T10:27:13;93715.75;;;27.67;68.31
11077;BME280;5591;42.626;23.380;2023-08-01T10:29:41;93705.38;;;27.74;67.98
11077;BME280;5591;42.626;23.380;2023-08-01T10:32:09;93700.72;;;28.41;64.92
11077;BME280;5591;42.626;23.380;2023-08-01T10:34:36;93698.13;;;28.66;63.15
11077;BME280;5591;42.626;23.380;2023-08-01T10:37:03;93691.59;;;28.59;63.45
11077;BME280;5591;42.626;23.380;2023-08-01T10:39:30;93695.78;;;28.73;62.76
11077;BME280;5591;42.626;23.380;2023-08-01T10:41:58;93692.53;;;28.54;64.25
11077;BME280;5591;42.626;23.380;2023-08-01T10:44:26;93695.31;;;29.27;60.88
11077;BME280;5591;42.626;23.380;2023-08-01T10:46:55;93612.63;;;28.62;61.14
11077;BME280;5591;42.626;23.380;2023-08-01T10:49:34;93680.00;;;28.97;62.10
11077;BME280;5591;42.626;23.380;2023-08-01T10:52:02;93682.03;;;29.81;58.63
11077;BME280;5591;42.626;23.380;2023-08-01T10:54:28;93674.44;;;30.46;55.62
11077;BME280;5591;42.626;23.380;2023-08-01T10:56:57;93665.75;;;30.99;52.20
11077;BME280;5591;42.626;23.380;2023-08-01T10:59:24;93664.41;;;31.42;50.12
11077;BME280;5591;42.626;23.380;2023-08-01T11:01:57;93664.06;;;31.44;50.57
11077;BME280;5591;42.626;23.380;2023-08-01T11:04:24;93657.78;;;31.72;49.59
11077;BME280;5591;42.626;23.380;2023-08-01T11:06:52;93669.03;;;31.21;49.50
11077;BME280;5591;42.626;23.380;2023-08-01T11:09:22;93670.66;;;30.76;52.28
11077;BME280;5591;42.626;23.380;2023-08-01T11:11:51;93661.41;;;31.55;48.77
11077;BME280;5591;42.626;23.380;2023-08-01T11:14:19;93659.84;;;31.34;49.31
11077;BME280;5591;42.626;23.380;2023-08-01T11:16:48;93645.41;;;31.83;47.77
11077;BME280;5591;42.626;23.380;2023-08-01T11:19:20;93654.25;;;31.92;46.61
11077;BME280;5591;42.626;23.380;2023-08-01T11:21:47;93644.00;;;32.30;45.62
11077;BME280;5591;42.626;23.380;2023-08-01T11:24:14;93576.19;;;32.33;44.32
11077;BME280;5591;42.626;23.380;2023-08-01T11:26:42;93641.19;;;31.73;45.08
11077;BME280;5591;42.626;23.380;2023-08-01T11:29:10;93657.31;;;29.91;50.56
11077;BME280;5591;42.626;23.380;2023-08-01T11:31:37;93643.69;;;31.09;47.25
11077;BME280;5591;42.626;23.380;2023-08-01T11:34:04;93633.81;;;32.27;44.78
11077;BME280;5591;42.626;23.380;2023-08-01T11:36:34;93571.56;;;32.94;41.39
11077;BME280;5591;42.626;23.380;2023-08-01T11:39:02;93612.59;;;33.25;40.30
11077;BME280;5591;42.626;23.380;2023-08-01T11:41:30;93631.19;;;33.35;39.86
11077;BME280;5591;42.626;23.380;2023-08-01T11:44:01;93643.75;;;31.90;41.93
11077;BME280;5591;42.626;23.380;2023-08-01T11:46:31;93624.84;;;33.58;39.69
11077;BME280;5591;42.626;23.380;2023-08-01T11:48:58;93621.81;;;35.69;36.17
11077;BME280;5591;42.626;23.380;2023-08-01T11:51:25;93643.78;;;34.34;37.12
11077;BME280;5591;42.626;23.380;2023-08-01T11:53:59;93612.97;;;35.41;35.37
11077;BME280;5591;42.626;23.380;2023-08-01T11:56:27;93616.56;;;34.80;36.73
11077;BME280;5591;42.626;23.380;2023-08-01T11:58:53;93608.00;;;35.47;35.98
11077;BME280;5591;42.626;23.380;2023-08-01T12:01:20;93598.81;;;37.72;32.88
11077;BME280;5591;42.626;23.380;2023-08-01T12:03:49;93603.53;;;38.74;30.77
11077;BME280;5591;42.626;23.380;2023-08-01T12:06:18;93582.25;;;40.82;28.45
11077;BME280;5591;42.626;23.380;2023-08-01T12:08:46;93575.59;;;41.07;28.70
11077;BME280;5591;42.626;23.380;2023-08-01T12:11:22;93599.16;;;41.68;27.40
11077;BME280;5591;42.626;23.380;2023-08-01T12:14:03;93585.31;;;41.96;27.16
11077;BME280;5591;42.626;23.380;2023-08-01T12:16:31;93524.34;;;42.48;26.17
11077;BME280;5591;42.626;23.380;2023-08-01T12:18:58;93580.13;;;43.38;25.01
11077;BME280;5591;42.626;23.380;2023-08-01T12:21:24;93582.97;;;43.31;24.89
11077;BME280;5591;42.626;23.380;2023-08-01T12:23:51;93577.78;;;42.86;25.90
11077;BME280;5591;42.626;23.380;2023-08-01T12:26:18;93576.34;;;40.49;27.74
11077;BME280;5591;42.626;23.380;2023-08-01T12:28:46;93573.72;;;38.00;31.33
11077;BME280;5591;42.626;23.380;2023-08-01T12:31:16;93573.16;;;38.57;30.75
11077;BME280;5591;42.626;23.380;2023-08-01T12:33:44;93531.25;;;39.82;29.32
11077;BME280;5591;42.626;23.380;2023-08-01T12:36:10;93569.31;;;41.00;28.41
11077;BME280;5591;42.626;23.380;2023-08-01T12:38:37;93567.75;;;42.51;26.42
11077;BME280;5591;42.626;23.380;2023-08-01T12:41:04;93572.91;;;43.04;25.61
11077;BME280;5591;42.626;23.380;2023-08-01T12:43:31;93564.97;;;41.20;26.94
11077;BME280;5591;42.626;23.380;2023-08-01T12:45:59;93560.69;;;39.67;28.22
11077;BME280;5591;42.626;23.380;2023-08-01T12:48:26;93547.44;;;40.01;27.19
11077;BME280;5591;42.626;23.380;2023-08-01T12:50:54;93571.41;;;39.25;28.56
11077;BME280;5591;42.626;23.380;2023-08-01T12:53:21;93557.19;;;38.66;29.24
11077;BME280;5591;42.626;23.380;2023-08-01T12:55:49;93545.66;;;41.30;26.83